Bonanza Express — EHYT — position and weather

sailwx.info

Track history (hours):
 
Tides and Currents Weather Stations Pressure Air Temp Water Temp Dewpoint Dewpoint Depression Visibility Wind Speed Wind Dir Waves Ship Positions

Bonanza Express

Last reported at 2018-Apr-24 20:37 UTC. Time now 2018-Apr-25 02:32 UTC.
Position N 27°59' W 014°42'.

Length 96 m; draft 3.4 m.

Type: High speed craft. MMSI: 224768000.

Date/timePositionNaut miles runAvg speedWind from/ knotsBaromVisibWave heightAir tempDewpointWater temp
2018-Apr-24 20:37N 27°59' W 014°42'326.9
2018-Apr-24 20:30N 27°59' W 014°45'1326.2
2018-Apr-24 20:00N 28°01' W 015°00'1326.7
2018-Apr-24 19:30N 28°04' W 015°15'1020.3
2018-Apr-24 19:00N 28°08' W 015°25'0 0.6
2018-Apr-24 18:30N 28°09' W 015°25'0 0.0
2018-Apr-24 18:00N 28°09' W 015°25'1 2.8
2018-Apr-24 17:30N 28°07' W 015°25'1427.5
2018-Apr-24 17:01N 28°04' W 015°10'1529.9
2018-Apr-24 16:31N 28°02' W 014°53'4 0.6
2018-Apr-24 09:25N 27°58' W 014°51'1127.5
2018-Apr-24 09:00N 28°00' W 015°03'1428.8
2018-Apr-24 08:30N 28°06' W 015°18'711.7
2018-Apr-24 07:56N 28°09' W 015°25'1 2.6
2018-Apr-24 07:29N 28°08' W 015°25'1327.7
2018-Apr-24 07:01N 28°02' W 015°11'19 1.8
2018-Apr-23 20:19N 28°02' W 014°49'927.4
2018-Apr-23 20:00N 28°02' W 014°59'1427.4
2018-Apr-23 19:31N 28°05' W 015°14'1020.6
2018-Apr-23 19:00N 28°09' W 015°25'0 0.3
2018-Apr-23 18:29N 28°09' W 015°25'1 1.5
2018-Apr-23 18:00N 28°08' W 015°25'1224.8
2018-Apr-23 17:30N 28°03' W 015°13'23 8.0
2018-Apr-23 14:38N 28°01' W 014°47'432.7
2018-Apr-23 14:30N 28°01' W 014°51'1734.0
2018-Apr-23 14:00N 28°04' W 015°10'1427.8
2018-Apr-23 13:31N 28°08' W 015°25'1 1.2
2018-Apr-23 13:01N 28°09' W 015°25'0 0.0
2018-Apr-23 12:30N 28°09' W 015°25'817.3
2018-Apr-23 12:01N 28°05' W 015°17'1734.7
2018-Apr-23 11:31N 28°01' W 014°58'11 5.0
2018-Apr-23 09:23N 28°02' W 014°46'1231.2
2018-Apr-23 09:00N 28°04' W 014°59'1631.8
2018-Apr-23 08:30N 28°06' W 015°17'815.7
2018-Apr-23 07:59N 28°09' W 015°25'0 0.0
2018-Apr-23 07:30N 28°09' W 015°25'713.3
2018-Apr-23 07:00N 28°05' W 015°19'1733.8
2018-Apr-23 06:30N 28°02' W 015°00'12 1.3
2018-Apr-22 20:42N 28°03' W 014°46'528.2
2018-Apr-22 20:31N 28°04' W 014°52'1528.7
2018-Apr-22 20:00N 28°05' W 015°09'1428.6
2018-Apr-22 19:30N 28°07' W 015°25'2 3.3
2018-Apr-22 19:00N 28°09' W 015°25'0 0.8
2018-Apr-22 18:30N 28°08' W 015°25'1224.7
2018-Apr-22 18:00N 28°05' W 015°12'24 8.4
2018-Apr-22 15:10N 28°03' W 014°45'533.1
2018-Apr-22 15:00N 28°03' W 014°51'1733.9
2018-Apr-22 14:30N 28°06' W 015°10'1427.2
2018-Apr-22 14:00N 28°08' W 015°25'1 1.2
2018-Apr-22 13:30N 28°09' W 015°25'714.4
2018-Apr-22 13:00N 28°05' W 015°18'1733.2
2018-Apr-22 12:30N 28°03' W 014°59'10 0.6
2018-Apr-21 20:07N 28°02' W 014°48'431.8
2018-Apr-21 20:00N 28°02' W 014°52'1632.8
2018-Apr-21 19:30N 28°05' W 015°10'1427.1
2018-Apr-21 19:00N 28°08' W 015°25'1 1.0
2018-Apr-21 18:30N 28°09' W 015°25'0 0.0
2018-Apr-21 18:00N 28°09' W 015°25'0 0.0
2018-Apr-21 17:30N 28°09' W 015°25'917.9
2018-Apr-21 17:00N 28°06' W 015°16'1632.1
2018-Apr-21 16:30N 28°03' W 014°58'7 1.1
2018-Apr-21 10:11N 28°02' W 014°50'632.4
2018-Apr-21 10:00N 28°02' W 014°56'1631.2
2018-Apr-21 09:30N 28°06' W 015°13'1121.8
2018-Apr-21 09:00N 28°09' W 015°25'0 0.3
2018-Apr-21 08:30N 28°09' W 015°25'1020.9
2018-Apr-21 08:00N 28°05' W 015°14'1631.3
2018-Apr-21 07:30N 28°03' W 014°57'10 1.0
2018-Apr-20 20:48N 28°02' W 014°45'827.8
2018-Apr-20 20:30N 28°04' W 014°54'1427.6
2018-Apr-20 20:00N 28°05' W 015°10'1425.4
2018-Apr-20 19:28N 28°08' W 015°25'1 2.4
2018-Apr-20 19:00N 28°09' W 015°25'0 1.0
2018-Apr-20 18:30N 28°08' W 015°25'1122.8
2018-Apr-20 18:00N 28°04' W 015°13'1529.1
2018-Apr-20 17:29N 28°01' W 014°57'8 3.0
2018-Apr-20 14:45N 28°03' W 014°47'730.9
2018-Apr-20 14:31N 28°03' W 014°56'1631.4
2018-Apr-20 14:00N 28°05' W 015°13'1121.9
2018-Apr-20 13:30N 28°09' W 015°25'0 0.0
2018-Apr-20 13:00N 28°09' W 015°25'816.1
2018-Apr-20 12:30N 28°04' W 015°18'1632.6
2018-Apr-20 12:01N 27°60' W 015°00'9 3.6
2018-Apr-20 09:25N 28°01' W 014°50'1228.0
2018-Apr-20 09:00N 28°03' W 015°03'1428.2
2018-Apr-20 08:30N 28°05' W 015°19'713.0
2018-Apr-20 08:00N 28°09' W 015°25'0 0.3
2018-Apr-20 07:30N 28°09' W 015°25'1121.9
2018-Apr-20 07:00N 28°05' W 015°14'1631.0
2018-Apr-20 06:30N 28°02' W 014°56'11 1.1
2018-Apr-19 20:25N 28°03' W 014°44'1228.5
2018-Apr-19 20:00N 28°04' W 014°57'1428.8
2018-Apr-19 19:30N 28°06' W 015°13'1121.5
2018-Apr-19 19:00N 28°09' W 015°25'0 0.0
2018-Apr-19 18:29N 28°09' W 015°25'0 0.0
2018-Apr-19 18:00N 28°09' W 015°25'4 8.1
2018-Apr-19 17:30N 28°07' W 015°21'1429.0
2018-Apr-19 17:00N 28°05' W 015°05'38 8.4
2018-Apr-19 12:26N 28°03' W 014°22'0 0.1
2018-Apr-19 10:15N 28°03' W 014°22'1626.1
2018-Apr-19 09:38N 28°02' W 014°40'829.1
2018-Apr-19 09:21N 28°03' W 014°49'1029.1
2018-Apr-19 09:00N 28°04' W 015°00'1529.3
2018-Apr-19 08:31N 28°05' W 015°17'815.8
2018-Apr-19 08:00N 28°09' W 015°25'0 0.4
2018-Apr-19 07:30N 28°09' W 015°25'1121.2
2018-Apr-19 07:00N 28°06' W 015°14'1632.5
2018-Apr-19 06:31N 28°04' W 014°56'30 4.0
2018-Apr-18 22:56N 28°03' W 014°22'0 0.0
2018-Apr-18 21:19N 28°03' W 014°22'517.0
2018-Apr-18 21:00N 28°02' W 014°28'2027.2
2018-Apr-18 20:17N 28°03' W 014°50'827.5
2018-Apr-18 20:00N 28°04' W 014°59'1427.7
2018-Apr-18 19:31N 28°06' W 015°14'1020.6
2018-Apr-18 19:00N 28°09' W 015°25'0 0.1
2018-Apr-18 18:30N 28°09' W 015°25'0 0.0
2018-Apr-18 18:00N 28°09' W 015°25'917.9
2018-Apr-18 17:30N 28°06' W 015°16'1631.4
2018-Apr-18 17:00N 28°03' W 014°58'2332.0
2018-Apr-18 16:17N 28°02' W 014°32'11 6.8
2018-Apr-18 14:39N 28°03' W 014°44'535.8
2018-Apr-18 14:30N 28°04' W 014°50'1835.4
2018-Apr-18 14:00N 28°06' W 015°10'1427.7
2018-Apr-18 13:30N 28°09' W 015°25'0 0.5
2018-Apr-18 12:59N 28°09' W 015°25'0 0.0
2018-Apr-18 12:30N 28°09' W 015°25'917.8
2018-Apr-18 12:01N 28°05' W 015°16'1834.4
2018-Apr-18 11:30N 28°03' W 014°56'11 5.3
2018-Apr-18 09:26N 28°02' W 014°44'1330.2
2018-Apr-18 09:00N 28°03' W 014°58'1530.6
2018-Apr-18 08:30N 28°05' W 015°16'918.6
2018-Apr-18 08:00N 28°09' W 015°25'1 1.0
2018-Apr-18 07:29N 28°08' W 015°25'1021.9
2018-Apr-18 07:00N 28°05' W 015°14'1631.7
2018-Apr-18 06:31N 28°03' W 014°56'2031.3
2018-Apr-18 05:52N 28°02' W 014°34'1115.9
2018-Apr-18 05:12N 28°03' W 014°22'0 0.0
2018-Apr-18 04:50N 28°03' W 014°22'0 0.0
2018-Apr-17 21:23N 28°03' W 014°22'924.8
2018-Apr-17 21:00N 28°02' W 014°32'1527.4
2018-Apr-17 20:28N 28°03' W 014°49'1327.6
2018-Apr-17 20:01N 28°04' W 015°03'1427.9
2018-Apr-17 19:31N 28°06' W 015°19'612.2
2018-Apr-17 18:59N 28°09' W 015°25'0 0.0
2018-Apr-17 18:29N 28°09' W 015°25'0 0.0
2018-Apr-17 18:00N 28°09' W 015°25'0 0.9
2018-Apr-17 17:30N 28°08' W 015°25'1122.6
2018-Apr-17 17:01N 28°06' W 015°13'1631.3
2018-Apr-17 16:31N 28°04' W 014°55'8 1.2
2018-Apr-17 09:25N 28°03' W 014°46'1228.9
2018-Apr-17 09:01N 28°05' W 014°59'1528.9
2018-Apr-17 08:30N 28°07' W 015°15'917.0
2018-Apr-17 07:59N 28°09' W 015°25'0 0.0
2018-Apr-17 07:29N 28°09' W 015°25'816.5
2018-Apr-17 07:00N 28°06' W 015°17'1733.1
2018-Apr-17 06:30N 28°04' W 014°58'21 2.2
2018-Apr-16 20:47N 28°01' W 014°34'927.4
2018-Apr-16 20:27N 28°01' W 014°45'1327.9
2018-Apr-16 20:00N 28°03' W 014°59'1428.0
2018-Apr-16 19:30N 28°05' W 015°14'9 5.1
2018-Apr-16 17:47N 28°07' W 015°24'932.3
2018-Apr-16 17:30N 28°05' W 015°14'1632.6
2018-Apr-16 17:00N 28°03' W 014°56'10 4.4
2018-Apr-16 14:42N 28°02' W 014°44'734.5
2018-Apr-16 14:30N 28°04' W 014°52'1734.5
2018-Apr-16 14:00N 28°06' W 015°11'1326.0
2018-Apr-16 13:30N 28°09' W 015°25'0 0.4
2018-Apr-16 13:00N 28°09' W 015°25'0 0.0
2018-Apr-16 12:30N 28°09' W 015°25'3 6.0
2018-Apr-16 12:00N 28°07' W 015°23'1835.8
2018-Apr-16 11:30N 28°04' W 015°02'18 8.2
2018-Apr-16 09:22N 28°02' W 014°42'1131.1
2018-Apr-16 09:00N 28°03' W 014°55'1631.1
2018-Apr-16 08:30N 28°05' W 015°12'12 8.4
2018-Apr-16 07:08N 28°07' W 015°25'323.1
2018-Apr-16 07:00N 28°07' W 015°22'1835.5
2018-Apr-16 06:30N 28°05' W 015°02'31 3.3
2018-Apr-15 21:04N 28°02' W 014°27'928.7
2018-Apr-15 20:46N 28°02' W 014°37'828.9
2018-Apr-15 20:31N 28°03' W 014°45'1528.9
2018-Apr-15 19:59N 28°04' W 015°02'1429.2
2018-Apr-15 19:30N 28°06' W 015°18'714.1
2018-Apr-15 19:00N 28°09' W 015°25'0 0.0
2018-Apr-15 18:30N 28°09' W 015°25'816.5
2018-Apr-15 18:00N 28°06' W 015°17'1733.3
2018-Apr-15 17:31N 28°03' W 014°58'13 5.7
2018-Apr-15 15:11N 28°03' W 014°43'633.0
2018-Apr-15 15:00N 28°04' W 014°49'1632.8
2018-Apr-15 14:30N 28°06' W 015°08'1530.9
2018-Apr-15 14:00N 28°08' W 015°25'1 2.3
2018-Apr-15 13:30N 28°09' W 015°25'4 9.0
2018-Apr-15 13:00N 28°06' W 015°21'1734.2
2018-Apr-15 12:30N 28°04' W 015°02'  
Track history (hours):
 
Tides and Currents Weather Stations Pressure Air Temp Water Temp Dewpoint Dewpoint Depression Visibility Wind Speed Wind Dir Waves Ship Positions

Bonanza Express

Last reported at 2018-Apr-24 20:37 UTC. Time now 2018-Apr-25 02:32 UTC.
Position N 27°59' W 014°42'.

Length 96 m; draft 3.4 m.

Type: High speed craft. MMSI: 224768000.

Date/timePositionNaut miles runAvg speedWind from/ knotsBaromVisibWave heightAir tempDewpointWater temp
2018-Apr-24 20:37N 27°59' W 014°42'326.9
2018-Apr-24 20:30N 27°59' W 014°45'1326.2
2018-Apr-24 20:00N 28°01' W 015°00'1326.7
2018-Apr-24 19:30N 28°04' W 015°15'1020.3
2018-Apr-24 19:00N 28°08' W 015°25'0 0.6
2018-Apr-24 18:30N 28°09' W 015°25'0 0.0
2018-Apr-24 18:00N 28°09' W 015°25'1 2.8
2018-Apr-24 17:30N 28°07' W 015°25'1427.5
2018-Apr-24 17:01N 28°04' W 015°10'1529.9
2018-Apr-24 16:31N 28°02' W 014°53'4 0.6
2018-Apr-24 09:25N 27°58' W 014°51'1127.5
2018-Apr-24 09:00N 28°00' W 015°03'1428.8
2018-Apr-24 08:30N 28°06' W 015°18'711.7
2018-Apr-24 07:56N 28°09' W 015°25'1 2.6
2018-Apr-24 07:29N 28°08' W 015°25'1327.7
2018-Apr-24 07:01N 28°02' W 015°11'19 1.8
2018-Apr-23 20:19N 28°02' W 014°49'927.4
2018-Apr-23 20:00N 28°02' W 014°59'1427.4
2018-Apr-23 19:31N 28°05' W 015°14'1020.6
2018-Apr-23 19:00N 28°09' W 015°25'0 0.3
2018-Apr-23 18:29N 28°09' W 015°25'1 1.5
2018-Apr-23 18:00N 28°08' W 015°25'1224.8
2018-Apr-23 17:30N 28°03' W 015°13'23 8.0
2018-Apr-23 14:38N 28°01' W 014°47'432.7
2018-Apr-23 14:30N 28°01' W 014°51'1734.0
2018-Apr-23 14:00N 28°04' W 015°10'1427.8
2018-Apr-23 13:31N 28°08' W 015°25'1 1.2
2018-Apr-23 13:01N 28°09' W 015°25'0 0.0
2018-Apr-23 12:30N 28°09' W 015°25'817.3
2018-Apr-23 12:01N 28°05' W 015°17'1734.7
2018-Apr-23 11:31N 28°01' W 014°58'11 5.0
2018-Apr-23 09:23N 28°02' W 014°46'1231.2
2018-Apr-23 09:00N 28°04' W 014°59'1631.8
2018-Apr-23 08:30N 28°06' W 015°17'815.7
2018-Apr-23 07:59N 28°09' W 015°25'0 0.0
2018-Apr-23 07:30N 28°09' W 015°25'713.3
2018-Apr-23 07:00N 28°05' W 015°19'1733.8
2018-Apr-23 06:30N 28°02' W 015°00'12 1.3
2018-Apr-22 20:42N 28°03' W 014°46'528.2
2018-Apr-22 20:31N 28°04' W 014°52'1528.7
2018-Apr-22 20:00N 28°05' W 015°09'1428.6
2018-Apr-22 19:30N 28°07' W 015°25'2 3.3
2018-Apr-22 19:00N 28°09' W 015°25'0 0.8
2018-Apr-22 18:30N 28°08' W 015°25'1224.7
2018-Apr-22 18:00N 28°05' W 015°12'24 8.4
2018-Apr-22 15:10N 28°03' W 014°45'533.1
2018-Apr-22 15:00N 28°03' W 014°51'1733.9
2018-Apr-22 14:30N 28°06' W 015°10'1427.2
2018-Apr-22 14:00N 28°08' W 015°25'1 1.2
2018-Apr-22 13:30N 28°09' W 015°25'714.4
2018-Apr-22 13:00N 28°05' W 015°18'1733.2
2018-Apr-22 12:30N 28°03' W 014°59'10 0.6
2018-Apr-21 20:07N 28°02' W 014°48'431.8
2018-Apr-21 20:00N 28°02' W 014°52'1632.8
2018-Apr-21 19:30N 28°05' W 015°10'1427.1
2018-Apr-21 19:00N 28°08' W 015°25'1 1.0
2018-Apr-21 18:30N 28°09' W 015°25'0 0.0
2018-Apr-21 18:00N 28°09' W 015°25'0 0.0
2018-Apr-21 17:30N 28°09' W 015°25'917.9
2018-Apr-21 17:00N 28°06' W 015°16'1632.1
2018-Apr-21 16:30N 28°03' W 014°58'7 1.1
2018-Apr-21 10:11N 28°02' W 014°50'632.4
2018-Apr-21 10:00N 28°02' W 014°56'1631.2
2018-Apr-21 09:30N 28°06' W 015°13'1121.8
2018-Apr-21 09:00N 28°09' W 015°25'0 0.3
2018-Apr-21 08:30N 28°09' W 015°25'1020.9
2018-Apr-21 08:00N 28°05' W 015°14'1631.3
2018-Apr-21 07:30N 28°03' W 014°57'10 1.0
2018-Apr-20 20:48N 28°02' W 014°45'827.8
2018-Apr-20 20:30N 28°04' W 014°54'1427.6
2018-Apr-20 20:00N 28°05' W 015°10'1425.4
2018-Apr-20 19:28N 28°08' W 015°25'1 2.4
2018-Apr-20 19:00N 28°09' W 015°25'0 1.0
2018-Apr-20 18:30N 28°08' W 015°25'1122.8
2018-Apr-20 18:00N 28°04' W 015°13'1529.1
2018-Apr-20 17:29N 28°01' W 014°57'8 3.0
2018-Apr-20 14:45N 28°03' W 014°47'730.9
2018-Apr-20 14:31N 28°03' W 014°56'1631.4
2018-Apr-20 14:00N 28°05' W 015°13'1121.9
2018-Apr-20 13:30N 28°09' W 015°25'0 0.0
2018-Apr-20 13:00N 28°09' W 015°25'816.1
2018-Apr-20 12:30N 28°04' W 015°18'1632.6
2018-Apr-20 12:01N 27°60' W 015°00'9 3.6
2018-Apr-20 09:25N 28°01' W 014°50'1228.0
2018-Apr-20 09:00N 28°03' W 015°03'1428.2
2018-Apr-20 08:30N 28°05' W 015°19'713.0
2018-Apr-20 08:00N 28°09' W 015°25'0 0.3
2018-Apr-20 07:30N 28°09' W 015°25'1121.9
2018-Apr-20 07:00N 28°05' W 015°14'1631.0
2018-Apr-20 06:30N 28°02' W 014°56'11 1.1
2018-Apr-19 20:25N 28°03' W 014°44'1228.5
2018-Apr-19 20:00N 28°04' W 014°57'1428.8
2018-Apr-19 19:30N 28°06' W 015°13'1121.5
2018-Apr-19 19:00N 28°09' W 015°25'0 0.0
2018-Apr-19 18:29N 28°09' W 015°25'0 0.0
2018-Apr-19 18:00N 28°09' W 015°25'4 8.1
2018-Apr-19 17:30N 28°07' W 015°21'1429.0
2018-Apr-19 17:00N 28°05' W 015°05'38 8.4
2018-Apr-19 12:26N 28°03' W 014°22'0 0.1
2018-Apr-19 10:15N 28°03' W 014°22'1626.1
2018-Apr-19 09:38N 28°02' W 014°40'829.1
2018-Apr-19 09:21N 28°03' W 014°49'1029.1
2018-Apr-19 09:00N 28°04' W 015°00'1529.3
2018-Apr-19 08:31N 28°05' W 015°17'815.8
2018-Apr-19 08:00N 28°09' W 015°25'0 0.4
2018-Apr-19 07:30N 28°09' W 015°25'1121.2
2018-Apr-19 07:00N 28°06' W 015°14'1632.5
2018-Apr-19 06:31N 28°04' W 014°56'30 4.0
2018-Apr-18 22:56N 28°03' W 014°22'0 0.0
2018-Apr-18 21:19N 28°03' W 014°22'517.0
2018-Apr-18 21:00N 28°02' W 014°28'2027.2
2018-Apr-18 20:17N 28°03' W 014°50'827.5
2018-Apr-18 20:00N 28°04' W 014°59'1427.7
2018-Apr-18 19:31N 28°06' W 015°14'1020.6
2018-Apr-18 19:00N 28°09' W 015°25'0 0.1
2018-Apr-18 18:30N 28°09' W 015°25'0 0.0
2018-Apr-18 18:00N 28°09' W 015°25'917.9
2018-Apr-18 17:30N 28°06' W 015°16'1631.4
2018-Apr-18 17:00N 28°03' W 014°58'2332.0
2018-Apr-18 16:17N 28°02' W 014°32'11 6.8
2018-Apr-18 14:39N 28°03' W 014°44'535.8
2018-Apr-18 14:30N 28°04' W 014°50'1835.4
2018-Apr-18 14:00N 28°06' W 015°10'1427.7
2018-Apr-18 13:30N 28°09' W 015°25'0 0.5
2018-Apr-18 12:59N 28°09' W 015°25'0 0.0
2018-Apr-18 12:30N 28°09' W 015°25'917.8
2018-Apr-18 12:01N 28°05' W 015°16'1834.4
2018-Apr-18 11:30N 28°03' W 014°56'11 5.3
2018-Apr-18 09:26N 28°02' W 014°44'1330.2
2018-Apr-18 09:00N 28°03' W 014°58'1530.6
2018-Apr-18 08:30N 28°05' W 015°16'918.6
2018-Apr-18 08:00N 28°09' W 015°25'1 1.0
2018-Apr-18 07:29N 28°08' W 015°25'1021.9
2018-Apr-18 07:00N 28°05' W 015°14'1631.7
2018-Apr-18 06:31N 28°03' W 014°56'2031.3
2018-Apr-18 05:52N 28°02' W 014°34'1115.9
2018-Apr-18 05:12N 28°03' W 014°22'0 0.0
2018-Apr-18 04:50N 28°03' W 014°22'0 0.0
2018-Apr-17 21:23N 28°03' W 014°22'924.8
2018-Apr-17 21:00N 28°02' W 014°32'1527.4
2018-Apr-17 20:28N 28°03' W 014°49'1327.6
2018-Apr-17 20:01N 28°04' W 015°03'1427.9
2018-Apr-17 19:31N 28°06' W 015°19'612.2
2018-Apr-17 18:59N 28°09' W 015°25'0 0.0
2018-Apr-17 18:29N 28°09' W 015°25'0 0.0
2018-Apr-17 18:00N 28°09' W 015°25'0 0.9
2018-Apr-17 17:30N 28°08' W 015°25'1122.6
2018-Apr-17 17:01N 28°06' W 015°13'1631.3
2018-Apr-17 16:31N 28°04' W 014°55'8 1.2
2018-Apr-17 09:25N 28°03' W 014°46'1228.9
2018-Apr-17 09:01N 28°05' W 014°59'1528.9
2018-Apr-17 08:30N 28°07' W 015°15'917.0
2018-Apr-17 07:59N 28°09' W 015°25'0 0.0
2018-Apr-17 07:29N 28°09' W 015°25'816.5
2018-Apr-17 07:00N 28°06' W 015°17'1733.1
2018-Apr-17 06:30N 28°04' W 014°58'21 2.2
2018-Apr-16 20:47N 28°01' W 014°34'927.4
2018-Apr-16 20:27N 28°01' W 014°45'1327.9
2018-Apr-16 20:00N 28°03' W 014°59'1428.0
2018-Apr-16 19:30N 28°05' W 015°14'9 5.1
2018-Apr-16 17:47N 28°07' W 015°24'932.3
2018-Apr-16 17:30N 28°05' W 015°14'1632.6
2018-Apr-16 17:00N 28°03' W 014°56'10 4.4
2018-Apr-16 14:42N 28°02' W 014°44'734.5
2018-Apr-16 14:30N 28°04' W 014°52'1734.5
2018-Apr-16 14:00N 28°06' W 015°11'1326.0
2018-Apr-16 13:30N 28°09' W 015°25'0 0.4
2018-Apr-16 13:00N 28°09' W 015°25'0 0.0
2018-Apr-16 12:30N 28°09' W 015°25'3 6.0
2018-Apr-16 12:00N 28°07' W 015°23'1835.8
2018-Apr-16 11:30N 28°04' W 015°02'18 8.2
2018-Apr-16 09:22N 28°02' W 014°42'1131.1
2018-Apr-16 09:00N 28°03' W 014°55'1631.1
2018-Apr-16 08:30N 28°05' W 015°12'12 8.4
2018-Apr-16 07:08N 28°07' W 015°25'323.1
2018-Apr-16 07:00N 28°07' W 015°22'1835.5
2018-Apr-16 06:30N 28°05' W 015°02'31 3.3
2018-Apr-15 21:04N 28°02' W 014°27'928.7
2018-Apr-15 20:46N 28°02' W 014°37'828.9
2018-Apr-15 20:31N 28°03' W 014°45'1528.9
2018-Apr-15 19:59N 28°04' W 015°02'1429.2
2018-Apr-15 19:30N 28°06' W 015°18'714.1
2018-Apr-15 19:00N 28°09' W 015°25'0 0.0
2018-Apr-15 18:30N 28°09' W 015°25'816.5
2018-Apr-15 18:00N 28°06' W 015°17'1733.3
2018-Apr-15 17:31N 28°03' W 014°58'13 5.7
2018-Apr-15 15:11N 28°03' W 014°43'633.0
2018-Apr-15 15:00N 28°04' W 014°49'1632.8
2018-Apr-15 14:30N 28°06' W 015°08'1530.9
2018-Apr-15 14:00N 28°08' W 015°25'1 2.3
2018-Apr-15 13:30N 28°09' W 015°25'4 9.0
2018-Apr-15 13:00N 28°06' W 015°21'1734.2
2018-Apr-15 12:30N 28°04' W 015°02'  

Dump ship's entire track history